Time;durP1;ratioP1;P1;durP2;ratioP2;P2;SDS_P1;SDS_P2;PMS_P1;PMS_P2;Temp;Humidity;BMP_temperature;BMP_pressure;BME280_temperature;BME280_humidity;BME280_pressure;Samples;Min_cycle;Max_cycle;Signal;HPM_P1;HPM_P2
2021/07/12 00:00:35;;;;;;;;;;;20.20;96.40;;;;;;5000386;28;20014;-70
2021/07/12 00:03:03;;;;;;;;;;;20.20;96.50;;;;;;5013934;28;20021;-72
2021/07/12 00:05:31;;;;;;;53.30;34.30;;;20.20;96.50;;;;;;5012692;28;20190;-73
2021/07/12 00:07:59;;;;;;;51.97;33.90;;;20.10;96.50;;;;;;5011320;28;20239;-73
2021/07/12 00:10:27;;;;;;;51.70;34.80;;;20.10;96.60;;;;;;5011360;28;20302;-69
2021/07/12 00:12:55;;;;;;;51.80;32.90;;;20.20;96.70;;;;;;5009655;28;20738;-70
2021/07/12 00:15:23;;;;;;;50.95;33.38;;;20.10;96.60;;;;;;5013202;28;20572;-71
2021/07/12 00:17:50;;;;;;;48.05;32.47;;;20.10;96.70;;;;;;5012804;28;20240;-71
2021/07/12 00:20:18;;;;;;;55.10;35.25;;;20.10;96.70;;;;;;5011583;28;20207;-71
2021/07/12 00:22:47;;;;;;;56.72;35.17;;;20.10;96.80;;;;;;5011201;28;20259;-71
2021/07/12 00:25:15;;;;;;;52.20;34.72;;;20.00;96.80;;;;;;5009221;28;20211;-70
2021/07/12 00:27:42;;;;;;;55.33;35.08;;;20.00;96.90;;;;;;5008199;28;20632;-72
2021/07/12 00:30:11;;;;;;;49.95;33.20;;;20.00;96.90;;;;;;5013367;28;20266;-71
2021/07/12 00:32:39;;;;;;;53.67;34.70;;;20.00;97.00;;;;;;5010639;28;20685;-72
2021/07/12 00:35:07;;;;;;;54.65;34.88;;;20.00;97.10;;;;;;5011654;28;20262;-69
2021/07/12 00:37:34;;;;;;;51.67;33.78;;;20.00;97.40;;;;;;5009165;28;20212;-72
2021/07/12 00:40:05;;;;;;;53.88;34.50;;;20.00;97.10;;;;;;5004098;28;20292;-72
2021/07/12 00:42:32;;;;;;;52.78;33.95;;;20.00;97.20;;;;;;5014284;28;20196;-73
2021/07/12 00:44:59;;;;;;;55.95;33.60;;;20.00;97.20;;;;;;4992733;28;20323;-71
2021/07/12 00:47:26;;;;;;;51.45;33.22;;;20.00;97.20;;;;;;5007773;28;20219;-72
2021/07/12 00:49:53;;;;;;;50.67;33.33;;;20.00;97.30;;;;;;5005458;28;20689;-73
2021/07/12 00:52:20;;;;;;;51.10;34.17;;;20.00;97.30;;;;;;5001614;28;20212;-71
2021/07/12 00:54:47;;;;;;;49.55;32.53;;;20.00;97.30;;;;;;4991968;28;20208;-69
2021/07/12 00:57:15;;;;;;;49.25;33.55;;;20.00;97.30;;;;;;4991233;28;20215;-70
2021/07/12 00:59:42;;;;;;;50.55;32.95;;;20.00;97.30;;;;;;4993727;28;20208;-70
2021/07/12 01:02:10;;;;;;;48.45;32.88;;;19.90;97.30;;;;;;5004459;28;20695;-69
2021/07/12 01:04:37;;;;;;;50.33;33.65;;;19.90;97.30;;;;;;5000660;28;20288;-72
2021/07/12 01:07:10;;;;;;;50.22;32.30;;;19.90;97.30;;;;;;5011120;28;20213;-72
2021/07/12 01:09:37;;;;;;;55.63;33.78;;;19.90;97.40;;;;;;5008725;28;20212;-73
2021/07/12 01:12:16;;;;;;;52.28;33.50;;;19.90;97.40;;;;;;4997543;28;20243;-71
2021/07/12 01:14:51;;;;;;;49.55;31.58;;;19.90;97.40;;;;;;5011147;28;20203;-71
2021/07/12 01:17:54;;;;;;;50.47;32.20;;;19.90;97.40;;;;;;5011105;28;20253;-71
2021/07/12 01:21:03;;;;;;;51.22;32.47;;;19.80;97.40;;;;;;5004843;28;20566;-74
2021/07/12 01:24:02;;;;;;;50.38;32.67;;;19.80;97.40;;;;;;5001078;28;20208;-70
2021/07/12 01:26:56;;;;;;;50.45;32.92;;;19.80;97.40;;;;;;5011261;28;20259;-71
2021/07/12 01:29:30;;;;;;;52.55;33.65;;;19.80;97.50;;;;;;5014644;28;20228;-72
2021/07/12 01:32:32;;;;;;;52.40;33.08;;;19.80;97.50;;;;;;5007836;28;20261;-72
2021/07/12 01:35:09;;;;;;;51.92;34.28;;;19.80;97.60;;;;;;5011316;28;20250;-71
2021/07/12 01:37:51;;;;;;;55.08;33.42;;;19.80;97.60;;;;;;4994266;28;20278;-69
2021/07/12 01:40:24;;;;;;;49.95;32.88;;;19.70;97.70;;;;;;4994892;28;20204;-73
2021/07/12 01:42:59;;;;;;;51.75;33.70;;;19.80;97.70;;;;;;5016555;28;20723;-72
2021/07/12 01:45:30;;;;;;;50.90;33.47;;;19.80;97.80;;;;;;4991986;28;20215;-73
2021/07/12 01:48:03;;;;;;;49.95;32.33;;;19.70;97.80;;;;;;5012837;28;20593;-72
2021/07/12 01:50:45;;;;;;;50.83;32.70;;;19.70;97.80;;;;;;4990573;28;20310;-73
2021/07/12 01:53:19;;;;;;;47.03;31.73;;;19.70;97.90;;;;;;4993564;28;20232;-72
2021/07/12 01:55:59;;;;;;;46.88;31.98;;;19.70;97.90;;;;;;5012146;28;20235;-71
2021/07/12 01:58:33;;;;;;;48.40;31.90;;;19.70;98.00;;;;;;4991942;28;20217;-73
2021/07/12 02:01:01;;;;;;;49.72;32.70;;;19.70;98.00;;;;;;5008387;28;20665;-72
2021/07/12 02:03:30;;;;;;;47.58;31.83;;;19.70;98.00;;;;;;4988405;28;20287;-71
2021/07/12 02:06:03;;;;;;;47.88;32.47;;;19.70;98.10;;;;;;5009887;28;20209;-75
2021/07/12 02:08:33;;;;;;;48.92;32.33;;;19.70;98.10;;;;;;4997223;28;20209;-74
2021/07/12 02:11:02;;;;;;;50.03;33.92;;;19.70;98.20;;;;;;5002796;28;20570;-73
2021/07/12 02:13:37;;;;;;;46.50;32.35;;;19.70;98.20;;;;;;5000732;28;20623;-69
2021/07/12 02:16:13;;;;;;;50.88;33.38;;;19.70;98.30;;;;;;4994254;28;20200;-73
2021/07/12 02:18:43;;;;;;;50.00;33.13;;;19.80;98.30;;;;;;4994618;28;20653;-71
2021/07/12 02:21:34;;;;;;;49.20;32.95;;;19.70;98.30;;;;;;4994172;28;20441;-73
2021/07/12 02:24:08;;;;;;;55.80;33.28;;;19.70;98.30;;;;;;4994951;28;20651;-70
2021/07/12 02:26:37;;;;;;;52.88;33.92;;;19.70;98.40;;;;;;4994321;28;20255;-74
2021/07/12 02:29:06;;;;;;;47.40;32.37;;;19.70;98.40;;;;;;4994424;28;20653;-70
2021/07/12 02:31:36;;;;;;;48.53;31.48;;;19.70;98.40;;;;;;5005925;28;20229;-73
2021/07/12 02:34:04;;;;;;;49.88;31.92;;;19.70;98.50;;;;;;5008248;28;20209;-72
2021/07/12 02:36:35;;;;;;;50.83;33.03;;;19.70;98.50;;;;;;4999384;28;20636;-74
2021/07/12 02:39:02;;;;;;;50.67;32.47;;;19.70;98.50;;;;;;4996546;28;20190;-74
2021/07/12 02:41:31;;;;;;;51.03;32.97;;;19.80;98.50;;;;;;5001804;28;20254;-69
2021/07/12 02:44:00;;;;;;;49.22;31.60;;;19.70;98.50;;;;;;5008820;28;20219;-71
2021/07/12 02:46:28;;;;;;;51.70;32.97;;;19.70;98.50;;;;;;5010468;28;20254;-72
2021/07/12 02:48:58;;;;;;;48.30;32.65;;;19.70;98.50;;;;;;4994233;28;20201;-72
2021/07/12 02:51:34;;;;;;;50.92;32.97;;;19.70;98.50;;;;;;4990990;28;20216;-72
2021/07/12 02:54:05;;;;;;;49.67;32.92;;;19.70;98.50;;;;;;5009065;28;20611;-73
2021/07/12 02:56:32;;;;;;;52.10;32.63;;;19.70;98.50;;;;;;5013144;28;20201;-71
2021/07/12 02:58:59;;;;;;;47.75;32.42;;;19.70;98.50;;;;;;5010737;28;20682;-72
2021/07/12 03:01:28;;;;;;;49.08;32.17;;;19.70;98.60;;;;;;4995843;28;20228;-71
2021/07/12 03:03:55;;;;;;;51.25;32.05;;;19.70;98.60;;;;;;5009345;28;20211;-74
2021/07/12 03:06:29;;;;;;;49.65;32.85;;;19.70;98.60;;;;;;4996473;28;20204;-71
2021/07/12 03:09:01;;;;;;;51.42;33.10;;;19.80;98.70;;;;;;4998051;28;20271;-71
2021/07/12 03:11:36;;;;;;;49.70;33.50;;;19.70;98.70;;;;;;5013501;28;20218;-74
2021/07/12 03:14:09;;;;;;;51.53;33.58;;;19.70;99.10;;;;;;4991477;28;20254;-73
2021/07/12 03:16:39;;;;;;;51.97;33.85;;;19.70;98.80;;;;;;4998676;28;20212;-72
2021/07/12 03:19:12;;;;;;;49.45;33.17;;;19.70;98.80;;;;;;5010453;28;20920;-73
2021/07/12 03:21:41;;;;;;;46.92;31.98;;;19.70;98.90;;;;;;5010417;28;20250;-70
2021/07/12 03:24:10;;;;;;;50.67;33.20;;;19.70;98.90;;;;;;5010525;28;20250;-72
2021/07/12 03:26:44;;;;;;;49.38;31.95;;;19.70;98.90;;;;;;5010299;28;20251;-70
2021/07/12 03:29:13;;;;;;;54.80;33.78;;;19.70;99.00;;;;;;4980264;28;20234;-72
2021/07/12 03:31:41;;;;;;;48.05;32.10;;;19.70;99.00;;;;;;4972676;28;20220;-73
2021/07/12 03:34:11;;;;;;;52.33;33.00;;;19.70;99.10;;;;;;4968548;28;20202;-70
2021/07/12 03:36:39;;;;;;;50.90;33.17;;;19.70;99.10;;;;;;4971062;28;20813;-70
2021/07/12 03:39:07;;;;;;;50.85;32.38;;;19.70;99.10;;;;;;4973388;28;20217;-72
2021/07/12 03:41:37;;;;;;;49.95;32.03;;;19.60;99.10;;;;;;4971179;28;20306;-74
2021/07/12 03:44:06;;;;;;;48.97;32.80;;;19.70;99.20;;;;;;4977141;28;20200;-70
2021/07/12 03:46:34;;;;;;;49.35;31.98;;;19.70;99.30;;;;;;4974504;28;20200;-71
2021/07/12 03:49:10;;;;;;;52.83;33.10;;;19.70;99.30;;;;;;4983540;28;20209;-70
2021/07/12 03:51:41;;;;;;;49.13;32.95;;;19.70;99.40;;;;;;4972109;28;20720;-71
2021/07/12 03:54:08;;;;;;;50.40;33.42;;;19.60;99.40;;;;;;4966021;28;20256;-71
2021/07/12 03:56:35;;;;;;;51.70;33.40;;;19.60;99.50;;;;;;4970999;28;20206;-70
2021/07/12 03:59:02;;;;;;;50.63;33.30;;;19.60;99.50;;;;;;4976130;28;20261;-73
2021/07/12 04:01:31;;;;;;;47.72;32.78;;;19.60;99.90;;;;;;4971349;28;20257;-72
2021/07/12 04:03:57;;;;;;;52.78;34.30;;;19.60;99.60;;;;;;4971297;28;20597;-70
2021/07/12 04:06:24;;;;;;;50.05;32.70;;;19.60;99.60;;;;;;4970313;28;20671;-72
2021/07/12 04:08:52;;;;;;;49.70;33.92;;;19.60;99.90;;;;;;4971699;28;20694;-69
2021/07/12 04:11:21;;;;;;;49.58;32.78;;;19.60;99.90;;;;;;4967892;28;20233;-71
2021/07/12 04:13:49;;;;;;;44.72;30.98;;;19.60;99.80;;;;;;4971477;28;20222;-72
2021/07/12 04:16:16;;;;;;;53.95;33.78;;;19.60;99.80;;;;;;4968242;28;20217;-73
2021/07/12 04:18:44;;;;;;;52.63;33.38;;;19.60;99.90;;;;;;4967658;28;20206;-72
2021/07/12 04:21:13;;;;;;;52.08;34.30;;;19.60;99.90;;;;;;4970182;28;20218;-70
2021/07/12 04:23:39;;;;;;;56.55;34.83;;;19.60;99.90;;;;;;4970685;28;20202;-71
2021/07/12 04:26:06;;;;;;;52.90;34.80;;;19.60;99.90;;;;;;4967772;28;20209;-71
2021/07/12 04:28:33;;;;;;;53.78;34.65;;;19.60;99.90;;;;;;4981918;28;20233;-72
2021/07/12 04:31:00;;;;;;;55.75;34.53;;;19.60;99.90;;;;;;5007620;28;20681;-70
2021/07/12 04:33:27;;;;;;;55.10;36.28;;;19.60;99.90;;;;;;5009079;28;20618;-73
2021/07/12 04:35:55;;;;;;;53.70;34.35;;;19.60;99.90;;;;;;4991481;28;20205;-74
2021/07/12 04:38:22;;;;;;;54.80;36.50;;;19.50;99.90;;;;;;5017466;28;20211;-71
2021/07/12 04:40:48;;;;;;;58.38;36.58;;;19.60;99.90;;;;;;5012854;28;20227;-71
2021/07/12 04:43:15;;;;;;;58.25;36.67;;;19.60;99.90;;;;;;4996296;28;20799;-71
2021/07/12 04:45:42;;;;;;;61.17;38.35;;;19.60;99.90;;;;;;4993476;28;20208;-72
2021/07/12 04:48:09;;;;;;;56.05;36.30;;;19.50;99.90;;;;;;5011790;28;20212;-70
2021/07/12 04:50:36;;;;;;;57.55;36.60;;;19.60;99.90;;;;;;5010574;28;20235;-72
2021/07/12 04:53:08;;;;;;;58.45;36.80;;;19.60;99.90;;;;;;5010506;28;20603;-68
2021/07/12 04:55:35;;;;;;;60.83;38.55;;;19.60;99.90;;;;;;5011573;28;20281;-69
2021/07/12 04:58:02;;;;;;;63.05;38.70;;;19.60;99.90;;;;;;5013927;28;20411;-70
2021/07/12 05:00:28;;;;;;;59.50;38.25;;;19.60;99.90;;;;;;5014094;28;20258;-71
2021/07/12 05:02:55;;;;;;;58.15;36.63;;;19.60;99.90;;;;;;5011089;28;20251;-71
2021/07/12 05:05:22;;;;;;;57.15;36.35;;;19.60;99.90;;;;;;5009897;28;20200;-71
2021/07/12 05:07:49;;;;;;;60.58;37.03;;;19.70;99.90;;;;;;5012570;28;20201;-71
2021/07/12 05:10:17;;;;;;;58.28;36.60;;;19.70;99.90;;;;;;5010142;28;20211;-70
2021/07/12 05:12:44;;;;;;;56.75;35.63;;;19.70;99.90;;;;;;5012009;28;20971;-70
2021/07/12 05:15:12;;;;;;;58.33;35.13;;;19.70;99.90;;;;;;5009997;28;20220;-70
2021/07/12 05:17:39;;;;;;;56.17;35.92;;;19.70;99.90;;;;;;5011855;28;20197;-70
2021/07/12 05:20:07;;;;;;;58.08;35.80;;;19.70;99.90;;;;;;5013222;28;20197;-70
2021/07/12 05:22:35;;;;;;;54.42;35.33;;;19.80;99.90;;;;;;5013279;28;20204;-70
2021/07/12 05:25:02;;;;;;;54.38;37.20;;;19.80;99.90;;;;;;5013203;28;20205;-70
2021/07/12 05:27:30;;;;;;;56.30;35.40;;;19.80;99.90;;;;;;5009557;28;20239;-71
2021/07/12 05:29:57;;;;;;;54.00;34.85;;;19.80;99.90;;;;;;5011371;28;20204;-69
2021/07/12 05:32:23;;;;;;;51.97;33.70;;;19.90;99.90;;;;;;5010273;28;20217;-69
2021/07/12 05:34:50;;;;;;;53.95;34.03;;;19.90;99.90;;;;;;5012629;28;20200;-72
2021/07/12 05:37:17;;;;;;;53.95;34.60;;;20.00;99.90;;;;;;5012814;28;20266;-71
2021/07/12 05:39:44;;;;;;;49.67;34.08;;;20.00;99.90;;;;;;5008884;28;20212;-69
2021/07/12 05:42:11;;;;;;;50.65;34.55;;;20.00;99.90;;;;;;5004296;28;20196;-69
2021/07/12 05:44:39;;;;;;;52.72;34.00;;;20.10;99.90;;;;;;5010100;28;20606;-69
2021/07/12 05:47:06;;;;;;;53.47;34.38;;;20.10;99.90;;;;;;5012065;28;20197;-68
2021/07/12 05:49:32;;;;;;;51.55;33.42;;;20.20;99.90;;;;;;5012004;28;20204;-68
2021/07/12 05:51:59;;;;;;;51.38;34.97;;;20.20;99.90;;;;;;5010724;28;20282;-69
2021/07/12 05:54:26;;;;;;;53.83;35.30;;;20.30;99.90;;;;;;5003576;28;20621;-68
2021/07/12 05:56:53;;;;;;;53.13;33.80;;;20.30;99.90;;;;;;5013066;28;20661;-69
2021/07/12 05:59:20;;;;;;;49.45;33.28;;;20.40;99.90;;;;;;5009626;28;21264;-70
2021/07/12 06:01:48;;;;;;;51.10;33.78;;;20.40;99.90;;;;;;5011319;28;20661;-69
2021/07/12 06:04:15;;;;;;;49.33;33.67;;;20.40;99.90;;;;;;5010593;28;20290;-69
2021/07/12 06:06:42;;;;;;;46.13;31.55;;;20.50;99.90;;;;;;5013629;28;20759;-68
2021/07/12 06:09:08;;;;;;;52.67;33.83;;;20.50;99.90;;;;;;5010495;28;20317;-69
2021/07/12 06:11:35;;;;;;;54.42;34.28;;;20.50;99.90;;;;;;5007252;28;20338;-70
2021/07/12 06:14:02;;;;;;;47.05;33.47;;;20.60;99.90;;;;;;5011247;28;20197;-69
2021/07/12 06:16:29;;;;;;;45.63;32.13;;;20.60;99.90;;;;;;5010126;28;20213;-69
2021/07/12 06:18:57;;;;;;;47.60;33.47;;;20.60;99.90;;;;;;5009196;28;20673;-68
2021/07/12 06:21:25;;;;;;;51.38;32.67;;;20.70;99.90;;;;;;5010328;28;20282;-68
2021/07/12 06:23:52;;;;;;;45.92;32.20;;;20.70;99.90;;;;;;5011890;28;20691;-67
2021/07/12 06:26:19;;;;;;;47.17;32.08;;;20.70;99.90;;;;;;5008813;28;20256;-69
2021/07/12 06:28:45;;;;;;;49.70;33.30;;;20.70;99.90;;;;;;4983439;28;20232;-71
2021/07/12 06:31:12;;;;;;;46.88;33.05;;;20.70;99.90;;;;;;4990694;28;20217;-68
2021/07/12 06:33:39;;;;;;;46.30;31.27;;;20.80;99.90;;;;;;4990703;28;20209;-69
2021/07/12 06:36:07;;;;;;;45.53;31.88;;;20.80;99.90;;;;;;4984797;28;20203;-67
2021/07/12 06:38:35;;;;;;;42.72;30.48;;;20.80;99.90;;;;;;4983310;28;20253;-67
2021/07/12 06:41:04;;;;;;;44.65;29.65;;;20.80;99.90;;;;;;4982418;28;20206;-67
2021/07/12 06:43:31;;;;;;;37.45;27.17;;;20.80;99.90;;;;;;4987552;28;20248;-69
2021/07/12 06:45:59;;;;;;;37.42;27.35;;;20.80;99.90;;;;;;4986507;28;20221;-70
2021/07/12 06:48:26;;;;;;;35.88;26.00;;;20.80;99.90;;;;;;4988080;28;20268;-67
2021/07/12 06:51:08;;;;;;;37.70;26.30;;;20.90;99.90;;;;;;4994656;28;20602;-66
2021/07/12 06:53:36;;;;;;;35.72;25.77;;;20.90;99.90;;;;;;4989293;28;20301;-69
2021/07/12 06:56:03;;;;;;;34.88;26.13;;;20.90;99.90;;;;;;4990311;28;20201;-69
2021/07/12 06:58:30;;;;;;;33.28;25.60;;;20.90;99.90;;;;;;4990572;28;20612;-69
2021/07/12 07:00:57;;;;;;;32.50;23.45;;;20.90;99.90;;;;;;4993983;28;20638;-68
2021/07/12 07:03:24;;;;;;;35.70;25.58;;;20.90;99.90;;;;;;4990052;28;20217;-69
2021/07/12 07:05:51;;;;;;;31.30;24.20;;;21.00;99.90;;;;;;4988602;28;20263;-67
2021/07/12 07:08:36;;;;;;;31.42;23.92;;;21.00;99.90;;;;;;4992184;28;20422;-68
2021/07/12 07:11:04;;;;;;;31.73;24.45;;;21.10;99.90;;;;;;4989124;28;20551;-68
2021/07/12 07:13:31;;;;;;;34.10;22.85;;;21.20;99.90;;;;;;4988736;28;20228;-68
2021/07/12 07:16:04;;;;;;;32.65;23.52;;;21.20;99.90;;;;;;4990699;28;20288;-68
2021/07/12 07:18:31;;;;;;;33.17;20.75;;;21.30;99.90;;;;;;4992205;28;20236;-71
2021/07/12 07:20:58;;;;;;;30.50;21.08;;;21.30;99.90;;;;;;4985386;28;20205;-71
2021/07/12 07:23:26;;;;;;;24.52;19.17;;;21.30;99.90;;;;;;4985174;28;20291;-72
2021/07/12 07:25:54;;;;;;;24.55;19.83;;;21.40;99.90;;;;;;4990520;28;20201;-70
2021/07/12 07:28:21;;;;;;;22.33;18.40;;;21.40;99.80;;;;;;4993579;28;20294;-70
2021/07/12 07:30:48;;;;;;;23.13;17.27;;;21.50;99.70;;;;;;4995549;28;20208;-71
2021/07/12 07:33:15;;;;;;;23.65;16.65;;;21.50;99.50;;;;;;5008983;28;20217;-70
2021/07/12 07:35:42;;;;;;;22.25;15.85;;;21.50;99.30;;;;;;5009687;28;20220;-72
2021/07/12 07:38:09;;;;;;;21.05;15.43;;;21.60;99.20;;;;;;5010804;28;20251;-71
2021/07/12 07:40:36;;;;;;;21.50;16.13;;;21.60;98.90;;;;;;5009321;28;20213;-70
2021/07/12 07:43:04;;;;;;;21.45;15.70;;;21.60;98.70;;;;;;5012728;28;20211;-70
2021/07/12 07:45:32;;;;;;;17.58;14.80;;;21.60;98.40;;;;;;5004492;28;20288;-70
2021/07/12 07:47:59;;;;;;;16.42;13.70;;;21.70;98.30;;;;;;5007279;28;20578;-70
2021/07/12 07:50:26;;;;;;;15.07;12.50;;;21.70;98.00;;;;;;5008397;28;20238;-70
2021/07/12 07:52:53;;;;;;;14.43;11.80;;;21.70;97.70;;;;;;5007639;28;20251;-69
2021/07/12 07:55:21;;;;;;;13.40;11.05;;;21.80;97.60;;;;;;5008897;28;20259;-70
2021/07/12 07:57:48;;;;;;;15.35;10.75;;;21.80;97.40;;;;;;5005982;28;20677;-70
2021/07/12 08:00:19;;;;;;;16.42;11.30;;;21.90;97.20;;;;;;5004564;28;20205;-70
2021/07/12 08:02:45;;;;;;;13.68;10.00;;;21.90;97.00;;;;;;5006415;28;20591;-68
2021/07/12 08:05:13;;;;;;;13.57;9.80;;;22.00;96.90;;;;;;4996834;28;20200;-70
2021/07/12 08:07:40;;;;;;;14.43;9.88;;;22.10;96.70;;;;;;5011275;28;20223;-69
2021/07/12 08:10:10;;;;;;;12.55;8.95;;;22.10;96.40;;;;;;5010888;28;20228;-69
2021/07/12 08:12:37;;;;;;;14.60;9.15;;;22.20;96.20;;;;;;5012854;28;20276;-69
2021/07/12 08:15:05;;;;;;;11.35;8.30;;;22.30;96.00;;;;;;5011272;28;20676;-69
2021/07/12 08:17:33;;;;;;;10.20;7.55;;;22.40;95.80;;;;;;5015086;28;20614;-66
2021/07/12 08:20:00;;;;;;;11.75;7.80;;;22.40;95.40;;;;;;5011594;28;20203;-68
2021/07/12 08:22:27;;;;;;;8.73;7.57;;;22.50;95.10;;;;;;5016940;28;20249;-66
2021/07/12 08:24:54;;;;;;;15.32;10.82;;;22.50;94.70;;;;;;5010355;28;20197;-66
2021/07/12 08:27:21;;;;;;;10.52;8.30;;;22.60;94.60;;;;;;5013474;28;20227;-65
2021/07/12 08:29:47;;;;;;;9.93;8.05;;;22.70;94.40;;;;;;5007867;28;20294;-66
2021/07/12 08:32:14;;;;;;;8.95;7.05;;;22.70;94.10;;;;;;5011347;28;20308;-66
2021/07/12 08:34:42;;;;;;;10.63;7.43;;;22.80;93.90;;;;;;4988043;28;20677;-65
2021/07/12 08:37:09;;;;;;;10.38;7.93;;;22.80;93.60;;;;;;5010022;28;20287;-65
2021/07/12 08:39:36;;;;;;;11.98;7.75;;;22.90;93.30;;;;;;5012177;28;20208;-65
2021/07/12 08:42:03;;;;;;;8.95;7.18;;;22.90;92.80;;;;;;5009563;28;20196;-65
2021/07/12 08:44:31;;;;;;;10.57;8.70;;;23.00;92.60;;;;;;5011798;28;20247;-65
2021/07/12 08:46:58;;;;;;;9.25;7.35;;;23.10;92.50;;;;;;5011564;28;20212;-65
2021/07/12 08:49:25;;;;;;;8.20;7.28;;;23.10;92.30;;;;;;5012026;28;20197;-64
2021/07/12 08:51:54;;;;;;;9.77;6.70;;;23.20;92.20;;;;;;5006324;28;20308;-67
2021/07/12 08:54:21;;;;;;;9.65;6.25;;;23.20;92.00;;;;;;4986700;28;20271;-67
2021/07/12 08:56:48;;;;;;;8.93;7.32;;;23.20;91.70;;;;;;5005182;28;20230;-65
2021/07/12 08:59:27;;;;;;;9.40;7.40;;;23.30;91.50;;;;;;5010106;28;20238;-64
2021/07/12 09:02:09;;;;;;;10.82;8.20;;;23.30;91.50;;;;;;4991215;28;22020;-65
2021/07/12 09:04:38;;;;;;;10.70;8.80;;;23.40;91.60;;;;;;5008560;28;20208;-66
2021/07/12 09:07:09;;;;;;;11.38;8.73;;;23.40;91.60;;;;;;5010954;28;20311;-66
2021/07/12 09:09:36;;;;;;;11.18;8.30;;;23.40;91.50;;;;;;5012423;28;20200;-66
2021/07/12 09:12:11;;;;;;;13.50;8.48;;;23.40;91.40;;;;;;5010953;28;20217;-67
2021/07/12 09:14:40;;;;;;;14.90;11.57;;;23.50;91.30;;;;;;5012983;28;20220;-65
2021/07/12 09:17:08;;;;;;;15.20;10.23;;;23.60;91.30;;;;;;5013413;28;20327;-66
2021/07/12 09:19:36;;;;;;;10.25;8.23;;;23.60;91.30;;;;;;5011330;28;20262;-69
2021/07/12 09:22:06;;;;;;;11.10;8.15;;;23.60;91.20;;;;;;5013027;28;20338;-70
2021/07/12 09:24:37;;;;;;;10.70;8.50;;;23.70;91.10;;;;;;5011720;28;20205;-69
2021/07/12 09:27:11;;;;;;;12.27;8.93;;;23.70;90.90;;;;;;5010996;28;20215;-70
2021/07/12 09:29:39;;;;;;;13.77;9.50;;;23.80;90.90;;;;;;4973518;28;1039604;-70
2021/07/12 09:32:09;;;;;;;13.85;9.23;;;23.90;90.80;;;;;;5016310;28;20249;-67
2021/07/12 09:34:36;;;;;;;16.27;10.93;;;23.90;90.60;;;;;;5013535;28;20208;-71
2021/07/12 09:37:05;;;;;;;12.82;10.05;;;23.90;90.50;;;;;;5012277;28;20216;-70
2021/07/12 09:39:36;;;;;;;12.85;9.20;;;24.00;90.40;;;;;;5011504;28;20271;-69
2021/07/12 09:42:06;;;;;;;13.48;10.50;;;24.00;90.50;;;;;;4994172;28;20208;-69
2021/07/12 09:44:34;;;;;;;14.70;9.63;;;24.00;90.60;;;;;;5011377;28;20263;-68
2021/07/12 09:47:07;;;;;;;11.07;8.05;;;24.00;90.50;;;;;;5008587;28;20367;-71
2021/07/12 09:49:34;;;;;;;11.57;7.40;;;24.00;90.30;;;;;;5009575;28;20237;-73
2021/07/12 09:52:05;;;;;;;10.40;8.65;;;24.10;90.20;;;;;;5010285;28;20271;-70
2021/07/12 09:54:35;;;;;;;11.90;8.77;;;24.10;90.00;;;;;;5003945;28;20630;-70
2021/07/12 09:57:09;;;;;;;13.02;7.88;;;24.10;90.00;;;;;;5013864;28;20212;-69
2021/07/12 09:59:37;;;;;;;15.07;9.57;;;24.20;90.00;;;;;;5009910;28;20207;-68
2021/07/12 10:02:04;;;;;;;16.42;10.57;;;24.20;90.00;;;;;;5012994;28;20196;-71
2021/07/12 10:04:31;;;;;;;16.90;11.73;;;24.30;90.00;;;;;;5010802;28;20628;-72
2021/07/12 10:06:59;;;;;;;16.35;10.98;;;24.40;90.30;;;;;;5011440;28;20563;-71
2021/07/12 10:09:26;;;;;;;14.93;10.00;;;24.40;89.80;;;;;;5012006;28;20201;-70
2021/07/12 10:11:54;;;;;;;12.38;9.63;;;24.40;89.60;;;;;;5011639;28;20196;-67
2021/07/12 10:14:24;;;;;;;14.50;10.75;;;24.50;89.40;;;;;;5007691;28;20771;-69
2021/07/12 10:16:52;;;;;;;15.85;10.60;;;24.50;88.90;;;;;;5010199;28;20613;-71
2021/07/12 10:19:19;;;;;;;12.95;11.13;;;24.70;88.30;;;;;;5010708;28;20252;-70
2021/07/12 10:21:50;;;;;;;14.02;10.68;;;24.70;87.70;;;;;;5012314;28;20209;-71
2021/07/12 10:24:18;;;;;;;18.73;11.57;;;24.70;87.60;;;;;;5010584;28;20209;-70
2021/07/12 10:26:47;;;;;;;15.68;11.25;;;24.80;87.20;;;;;;5010331;28;20208;-68
2021/07/12 10:29:15;;;;;;;15.13;10.07;;;24.90;86.80;;;;;;5010411;28;20232;-69
2021/07/12 10:35:03;;;;;;;18.10;11.60;;;24.90;86.80;;;;;;5007167;28;20255;-65
2021/07/12 10:37:33;;;;;;;13.82;11.07;;;25.00;86.70;;;;;;5010939;28;20208;-67
2021/07/12 10:40:12;;;;;;;13.82;11.50;;;25.00;86.30;;;;;;5011634;28;20205;-65
2021/07/12 10:42:51;;;;;;;16.77;11.55;;;25.00;86.40;;;;;;5005855;28;20561;-66
2021/07/12 10:45:20;;;;;;;13.88;11.57;;;24.90;86.40;;;;;;5009669;28;20235;-65
2021/07/12 10:47:50;;;;;;;16.25;12.60;;;24.90;86.30;;;;;;5004357;28;20204;-65
2021/07/12 10:50:40;;;;;;;16.38;10.85;;;24.90;86.20;;;;;;5006473;28;20208;-67
2021/07/12 10:53:43;;;;;;;13.13;10.90;;;24.90;86.40;;;;;;5001487;28;20212;-65
2021/07/12 10:56:16;;;;;;;19.90;11.48;;;24.90;86.70;;;;;;5001524;28;20219;-65
2021/07/12 10:58:50;;;;;;;13.52;10.82;;;25.00;86.70;;;;;;5008711;28;20224;-66
2021/07/12 11:01:39;;;;;;;18.00;11.57;;;25.00;86.80;;;;;;5007043;28;20204;-66
2021/07/12 11:04:33;;;;;;;13.85;11.15;;;25.10;86.60;;;;;;5007053;28;20204;-66
2021/07/12 11:07:01;;;;;;;16.63;12.20;;;25.10;86.00;;;;;;5010583;28;20204;-65
2021/07/12 11:10:00;;;;;;;14.82;11.70;;;25.20;85.70;;;;;;5009630;28;20227;-66
2021/07/12 11:12:41;;;;;;;19.02;12.38;;;25.20;85.40;;;;;;5004996;28;20591;-65
2021/07/12 11:15:13;;;;;;;19.83;11.60;;;25.20;85.00;;;;;;5007264;28;20211;-65
2021/07/12 11:17:49;;;;;;;14.32;11.02;;;25.30;85.10;;;;;;5008466;28;20674;-65
2021/07/12 11:20:17;;;;;;;14.38;11.10;;;25.30;84.70;;;;;;5009256;28;20207;-66
2021/07/12 11:22:54;;;;;;;14.15;10.50;;;25.30;84.40;;;;;;5009345;28;20197;-66
2021/07/12 11:25:39;;;;;;;14.93;11.45;;;25.20;84.00;;;;;;5006164;28;20263;-66
2021/07/12 11:28:11;;;;;;;12.43;10.75;;;25.20;83.70;;;;;;5007574;28;20648;-69
2021/07/12 11:30:39;;;;;;;14.30;9.73;;;25.10;83.40;;;;;;4991529;28;20251;-70
2021/07/12 11:33:06;;;;;;;13.57;9.93;;;25.10;83.20;;;;;;5008830;28;20306;-70
2021/07/12 11:35:35;;;;;;;17.73;10.45;;;25.10;83.10;;;;;;5008520;28;20338;-70
2021/07/12 11:38:04;;;;;;;13.18;10.77;;;25.00;83.20;;;;;;5009811;28;20621;-69
2021/07/12 11:40:30;;;;;;;15.68;10.23;;;24.90;83.10;;;;;;5010321;28;20569;-70
2021/07/12 11:42:57;;;;;;;12.07;9.88;;;24.80;83.40;;;;;;5009665;28;20212;-70
2021/07/12 11:45:25;;;;;;;17.33;10.32;;;24.80;83.80;;;;;;5006736;28;20204;-69
2021/07/12 11:47:55;;;;;;;13.65;10.57;;;24.80;84.00;;;;;;5009726;28;20595;-69
2021/07/12 11:50:24;;;;;;;13.05;10.25;;;24.70;84.20;;;;;;5013436;28;20259;-70
2021/07/12 11:52:53;;;;;;;14.65;10.85;;;24.70;84.70;;;;;;5007412;28;20209;-68
2021/07/12 11:55:21;;;;;;;15.85;11.63;;;24.60;84.90;;;;;;5010105;28;20261;-71
2021/07/12 11:57:49;;;;;;;16.98;11.35;;;24.60;85.20;;;;;;5007178;28;20298;-71
2021/07/12 12:00:18;;;;;;;13.90;11.45;;;24.50;85.50;;;;;;5010862;28;20661;-70
2021/07/12 12:02:45;;;;;;;14.40;11.85;;;24.50;85.70;;;;;;4998055;28;20755;-70
2021/07/12 12:05:13;;;;;;;13.02;11.60;;;24.50;85.90;;;;;;5011694;28;20254;-71
2021/07/12 12:07:42;;;;;;;15.60;11.90;;;24.50;86.20;;;;;;5008216;28;20209;-69
2021/07/12 12:10:13;;;;;;;15.75;11.57;;;24.60;86.50;;;;;;5006785;28;20674;-70
2021/07/12 12:12:42;;;;;;;16.92;13.20;;;24.60;86.70;;;;;;5006319;28;20199;-68
2021/07/12 12:15:13;;;;;;;17.42;13.52;;;24.70;86.80;;;;;;5009144;28;21021;-69
2021/07/12 12:17:46;;;;;;;15.77;11.98;;;24.70;86.60;;;;;;5008632;28;20281;-68
2021/07/12 12:20:19;;;;;;;14.60;11.50;;;24.80;86.70;;;;;;5007993;28;20216;-69
2021/07/12 12:23:12;;;;;;;15.93;13.15;;;24.80;86.80;;;;;;5009556;28;20207;-70
2021/07/12 12:25:53;;;;;;;18.13;13.60;;;24.90;86.70;;;;;;4990321;28;20213;-71
2021/07/12 12:28:39;;;;;;;22.08;15.00;;;24.90;86.50;;;;;;5006259;28;20585;-69
2021/07/12 12:31:07;;;;;;;18.58;14.43;;;24.90;85.90;;;;;;5008652;28;20204;-68
2021/07/12 12:33:36;;;;;;;21.10;14.93;;;25.00;85.50;;;;;;5009966;28;20221;-68
2021/07/12 12:36:06;;;;;;;15.90;12.73;;;24.90;85.10;;;;;;5008922;28;20312;-69
2021/07/12 12:38:33;;;;;;;15.82;12.65;;;24.90;85.00;;;;;;5010963;28;20658;-68
2021/07/12 12:41:04;;;;;;;24.35;12.98;;;24.90;85.30;;;;;;5004830;28;20204;-65
2021/07/12 12:43:32;;;;;;;19.60;14.10;;;24.90;85.50;;;;;;5007499;28;20251;-70
2021/07/12 12:46:01;;;;;;;14.32;12.60;;;24.90;85.70;;;;;;4994167;28;20213;-69